sensor_id;sensor_type;location;lat;lon;timestamp;P1;durP1;ratioP1;P2;durP2;ratioP2
11004;SDS011;5555;59.622;16.556;2022-10-16T00:00:35;24.33;;;21.87;;
11004;SDS011;5555;59.622;16.556;2022-10-16T00:03:02;24.63;;;22.27;;
11004;SDS011;5555;59.622;16.556;2022-10-16T00:05:28;24.03;;;21.77;;
11004;SDS011;5555;59.622;16.556;2022-10-16T00:07:54;24.00;;;21.60;;
11004;SDS011;5555;59.622;16.556;2022-10-16T00:10:20;23.70;;;21.40;;
11004;SDS011;5555;59.622;16.556;2022-10-16T00:12:46;25.33;;;22.70;;
11004;SDS011;5555;59.622;16.556;2022-10-16T00:15:11;22.30;;;20.23;;
11004;SDS011;5555;59.622;16.556;2022-10-16T00:17:37;23.17;;;20.97;;
11004;SDS011;5555;59.622;16.556;2022-10-16T00:20:03;20.93;;;18.83;;
11004;SDS011;5555;59.622;16.556;2022-10-16T00:22:29;21.80;;;19.80;;
11004;SDS011;5555;59.622;16.556;2022-10-16T00:24:55;21.70;;;19.70;;
11004;SDS011;5555;59.622;16.556;2022-10-16T00:27:21;19.60;;;17.83;;
11004;SDS011;5555;59.622;16.556;2022-10-16T00:29:50;20.80;;;19.00;;
11004;SDS011;5555;59.622;16.556;2022-10-16T00:32:16;19.50;;;17.70;;
11004;SDS011;5555;59.622;16.556;2022-10-16T00:34:42;20.50;;;18.67;;
11004;SDS011;5555;59.622;16.556;2022-10-16T00:37:08;20.00;;;18.07;;
11004;SDS011;5555;59.622;16.556;2022-10-16T00:39:34;19.20;;;17.27;;
11004;SDS011;5555;59.622;16.556;2022-10-16T00:42:00;19.87;;;18.03;;
11004;SDS011;5555;59.622;16.556;2022-10-16T00:47:12;19.53;;;17.73;;
11004;SDS011;5555;59.622;16.556;2022-10-16T00:49:46;19.90;;;18.00;;
11004;SDS011;5555;59.622;16.556;2022-10-16T00:52:14;18.57;;;16.77;;
11004;SDS011;5555;59.622;16.556;2022-10-16T00:54:40;19.77;;;17.97;;
11004;SDS011;5555;59.622;16.556;2022-10-16T00:57:06;19.27;;;17.30;;
11004;SDS011;5555;59.622;16.556;2022-10-16T00:59:34;20.13;;;18.23;;
11004;SDS011;5555;59.622;16.556;2022-10-16T01:02:02;18.10;;;16.50;;
11004;SDS011;5555;59.622;16.556;2022-10-16T01:04:48;18.47;;;16.77;;
11004;SDS011;5555;59.622;16.556;2022-10-16T01:15:19;18.03;;;16.43;;
11004;SDS011;5555;59.622;16.556;2022-10-16T01:20:37;17.53;;;15.93;;
11004;SDS011;5555;59.622;16.556;2022-10-16T01:28:28;14.70;;;13.50;;
11004;SDS011;5555;59.622;16.556;2022-10-16T01:31:14;15.47;;;13.97;;
11004;SDS011;5555;59.622;16.556;2022-10-16T01:33:45;14.90;;;13.50;;
11004;SDS011;5555;59.622;16.556;2022-10-16T01:36:16;13.23;;;11.93;;
11004;SDS011;5555;59.622;16.556;2022-10-16T01:38:47;13.10;;;12.00;;
11004;SDS011;5555;59.622;16.556;2022-10-16T01:41:18;14.07;;;12.73;;
11004;SDS011;5555;59.622;16.556;2022-10-16T01:44:08;11.70;;;10.80;;
11004;SDS011;5555;59.622;16.556;2022-10-16T01:46:43;12.33;;;11.23;;
11004;SDS011;5555;59.622;16.556;2022-10-16T01:49:12;11.80;;;10.67;;
11004;SDS011;5555;59.622;16.556;2022-10-16T01:51:38;11.40;;;10.40;;
11004;SDS011;5555;59.622;16.556;2022-10-16T01:54:06;11.07;;;10.07;;
11004;SDS011;5555;59.622;16.556;2022-10-16T01:56:34;10.80;;;9.80;;
11004;SDS011;5555;59.622;16.556;2022-10-16T01:59:03;11.00;;;10.10;;
11004;SDS011;5555;59.622;16.556;2022-10-16T02:01:32;10.07;;;9.27;;
11004;SDS011;5555;59.622;16.556;2022-10-16T02:04:02;11.17;;;10.03;;
11004;SDS011;5555;59.622;16.556;2022-10-16T02:06:42;11.27;;;10.23;;
11004;SDS011;5555;59.622;16.556;2022-10-16T02:09:08;9.60;;;8.80;;
11004;SDS011;5555;59.622;16.556;2022-10-16T02:11:34;9.90;;;9.03;;
11004;SDS011;5555;59.622;16.556;2022-10-16T02:14:06;8.00;;;7.33;;
11004;SDS011;5555;59.622;16.556;2022-10-16T02:16:36;6.33;;;5.73;;
11004;SDS011;5555;59.622;16.556;2022-10-16T02:19:09;6.43;;;5.83;;
11004;SDS011;5555;59.622;16.556;2022-10-16T02:21:42;6.50;;;6.03;;
11004;SDS011;5555;59.622;16.556;2022-10-16T02:24:39;6.23;;;5.73;;
11004;SDS011;5555;59.622;16.556;2022-10-16T02:30:14;6.93;;;6.33;;
11004;SDS011;5555;59.622;16.556;2022-10-16T02:32:50;6.53;;;5.57;;
11004;SDS011;5555;59.622;16.556;2022-10-16T02:35:18;5.57;;;5.13;;
11004;SDS011;5555;59.622;16.556;2022-10-16T02:37:47;5.53;;;5.13;;
11004;SDS011;5555;59.622;16.556;2022-10-16T02:40:14;5.57;;;4.97;;
11004;SDS011;5555;59.622;16.556;2022-10-16T02:42:41;4.87;;;4.37;;
11004;SDS011;5555;59.622;16.556;2022-10-16T02:45:07;4.43;;;3.53;;
11004;SDS011;5555;59.622;16.556;2022-10-16T02:47:34;2.50;;;2.30;;
11004;SDS011;5555;59.622;16.556;2022-10-16T02:50:00;2.70;;;2.50;;
11004;SDS011;5555;59.622;16.556;2022-10-16T02:52:26;1.97;;;1.40;;
11004;SDS011;5555;59.622;16.556;2022-10-16T02:54:51;2.03;;;1.50;;
11004;SDS011;5555;59.622;16.556;2022-10-16T02:57:17;1.60;;;1.50;;
11004;SDS011;5555;59.622;16.556;2022-10-16T02:59:43;2.00;;;1.80;;
11004;SDS011;5555;59.622;16.556;2022-10-16T03:02:09;1.90;;;1.80;;
11004;SDS011;5555;59.622;16.556;2022-10-16T03:04:35;1.70;;;1.60;;
11004;SDS011;5555;59.622;16.556;2022-10-16T03:07:01;1.30;;;1.20;;
11004;SDS011;5555;59.622;16.556;2022-10-16T03:09:28;2.37;;;1.50;;
11004;SDS011;5555;59.622;16.556;2022-10-16T03:11:53;1.50;;;1.30;;
11004;SDS011;5555;59.622;16.556;2022-10-16T03:14:19;1.70;;;1.10;;
11004;SDS011;5555;59.622;16.556;2022-10-16T03:16:45;1.40;;;1.27;;
11004;SDS011;5555;59.622;16.556;2022-10-16T03:19:11;1.83;;;1.47;;
11004;SDS011;5555;59.622;16.556;2022-10-16T03:21:36;1.80;;;1.50;;
11004;SDS011;5555;59.622;16.556;2022-10-16T03:24:02;4.30;;;1.50;;
11004;SDS011;5555;59.622;16.556;2022-10-16T03:26:28;1.83;;;1.73;;
11004;SDS011;5555;59.622;16.556;2022-10-16T03:28:53;2.03;;;1.90;;
11004;SDS011;5555;59.622;16.556;2022-10-16T03:31:19;2.10;;;1.70;;
11004;SDS011;5555;59.622;16.556;2022-10-16T03:33:45;1.90;;;1.80;;
11004;SDS011;5555;59.622;16.556;2022-10-16T03:36:11;1.90;;;1.80;;
11004;SDS011;5555;59.622;16.556;2022-10-16T03:38:36;2.07;;;1.90;;
11004;SDS011;5555;59.622;16.556;2022-10-16T03:41:02;2.00;;;1.90;;
11004;SDS011;5555;59.622;16.556;2022-10-16T03:43:28;2.70;;;2.13;;
11004;SDS011;5555;59.622;16.556;2022-10-16T03:45:54;2.10;;;1.93;;
11004;SDS011;5555;59.622;16.556;2022-10-16T03:48:20;2.23;;;1.80;;
11004;SDS011;5555;59.622;16.556;2022-10-16T03:50:45;3.20;;;1.90;;
11004;SDS011;5555;59.622;16.556;2022-10-16T03:53:13;2.33;;;2.00;;
11004;SDS011;5555;59.622;16.556;2022-10-16T03:55:41;2.50;;;2.00;;
11004;SDS011;5555;59.622;16.556;2022-10-16T03:58:07;1.90;;;1.80;;
11004;SDS011;5555;59.622;16.556;2022-10-16T04:00:32;2.80;;;2.27;;
11004;SDS011;5555;59.622;16.556;2022-10-16T04:02:59;2.30;;;2.20;;
11004;SDS011;5555;59.622;16.556;2022-10-16T04:05:25;2.77;;;2.57;;
11004;SDS011;5555;59.622;16.556;2022-10-16T04:07:50;3.03;;;2.70;;
11004;SDS011;5555;59.622;16.556;2022-10-16T04:10:16;3.47;;;3.17;;
11004;SDS011;5555;59.622;16.556;2022-10-16T04:12:42;4.23;;;3.93;;
11004;SDS011;5555;59.622;16.556;2022-10-16T04:15:08;3.77;;;3.47;;
11004;SDS011;5555;59.622;16.556;2022-10-16T04:17:33;5.07;;;4.67;;
11004;SDS011;5555;59.622;16.556;2022-10-16T04:19:59;5.83;;;5.33;;
11004;SDS011;5555;59.622;16.556;2022-10-16T04:22:25;8.00;;;6.43;;
11004;SDS011;5555;59.622;16.556;2022-10-16T04:24:50;7.93;;;7.13;;
11004;SDS011;5555;59.622;16.556;2022-10-16T04:27:16;9.10;;;8.37;;
11004;SDS011;5555;59.622;16.556;2022-10-16T04:29:41;9.77;;;8.80;;
11004;SDS011;5555;59.622;16.556;2022-10-16T04:32:10;10.70;;;9.60;;
11004;SDS011;5555;59.622;16.556;2022-10-16T04:34:36;10.83;;;9.93;;
11004;SDS011;5555;59.622;16.556;2022-10-16T04:37:04;11.97;;;10.77;;
11004;SDS011;5555;59.622;16.556;2022-10-16T04:39:29;12.63;;;11.43;;
11004;SDS011;5555;59.622;16.556;2022-10-16T04:41:55;11.97;;;10.90;;
11004;SDS011;5555;59.622;16.556;2022-10-16T04:44:21;12.00;;;10.90;;
11004;SDS011;5555;59.622;16.556;2022-10-16T04:46:47;11.27;;;10.27;;
11004;SDS011;5555;59.622;16.556;2022-10-16T04:49:14;10.43;;;9.60;;
11004;SDS011;5555;59.622;16.556;2022-10-16T04:51:40;10.57;;;9.73;;
11004;SDS011;5555;59.622;16.556;2022-10-16T04:54:06;10.87;;;9.77;;
11004;SDS011;5555;59.622;16.556;2022-10-16T04:56:31;10.27;;;9.23;;
11004;SDS011;5555;59.622;16.556;2022-10-16T04:58:57;10.17;;;9.13;;
11004;SDS011;5555;59.622;16.556;2022-10-16T05:01:23;9.30;;;8.57;;
11004;SDS011;5555;59.622;16.556;2022-10-16T05:03:48;9.63;;;8.60;;
11004;SDS011;5555;59.622;16.556;2022-10-16T05:06:14;9.03;;;8.23;;
11004;SDS011;5555;59.622;16.556;2022-10-16T05:08:40;9.00;;;7.40;;
11004;SDS011;5555;59.622;16.556;2022-10-16T05:11:05;8.47;;;7.57;;
11004;SDS011;5555;59.622;16.556;2022-10-16T05:13:31;7.20;;;6.50;;
11004;SDS011;5555;59.622;16.556;2022-10-16T05:15:56;7.53;;;6.27;;
11004;SDS011;5555;59.622;16.556;2022-10-16T05:18:22;6.70;;;6.10;;
11004;SDS011;5555;59.622;16.556;2022-10-16T05:20:48;7.33;;;6.63;;
11004;SDS011;5555;59.622;16.556;2022-10-16T05:23:13;6.70;;;6.00;;
11004;SDS011;5555;59.622;16.556;2022-10-16T05:25:39;6.67;;;6.03;;
11004;SDS011;5555;59.622;16.556;2022-10-16T05:28:04;6.53;;;5.83;;
11004;SDS011;5555;59.622;16.556;2022-10-16T05:30:30;6.57;;;5.97;;
11004;SDS011;5555;59.622;16.556;2022-10-16T05:32:55;6.23;;;5.67;;
11004;SDS011;5555;59.622;16.556;2022-10-16T05:35:21;6.47;;;5.63;;
11004;SDS011;5555;59.622;16.556;2022-10-16T05:37:47;6.43;;;5.80;;
11004;SDS011;5555;59.622;16.556;2022-10-16T05:40:13;6.50;;;5.87;;
11004;SDS011;5555;59.622;16.556;2022-10-16T05:42:39;6.07;;;5.57;;
11004;SDS011;5555;59.622;16.556;2022-10-16T05:45:06;6.87;;;6.17;;
11004;SDS011;5555;59.622;16.556;2022-10-16T05:47:33;6.60;;;6.00;;
11004;SDS011;5555;59.622;16.556;2022-10-16T05:49:58;6.30;;;5.80;;
11004;SDS011;5555;59.622;16.556;2022-10-16T05:52:24;6.43;;;5.83;;
11004;SDS011;5555;59.622;16.556;2022-10-16T05:54:51;6.67;;;6.00;;
11004;SDS011;5555;59.622;16.556;2022-10-16T05:57:17;6.77;;;6.17;;
11004;SDS011;5555;59.622;16.556;2022-10-16T05:59:42;7.23;;;5.93;;
11004;SDS011;5555;59.622;16.556;2022-10-16T06:02:12;6.80;;;6.20;;
11004;SDS011;5555;59.622;16.556;2022-10-16T06:04:38;7.53;;;6.60;;
11004;SDS011;5555;59.622;16.556;2022-10-16T06:07:03;8.03;;;7.13;;
11004;SDS011;5555;59.622;16.556;2022-10-16T06:09:29;6.63;;;6.13;;
11004;SDS011;5555;59.622;16.556;2022-10-16T06:11:55;7.40;;;6.70;;
11004;SDS011;5555;59.622;16.556;2022-10-16T06:14:20;7.23;;;6.53;;
11004;SDS011;5555;59.622;16.556;2022-10-16T06:16:46;7.53;;;6.83;;
11004;SDS011;5555;59.622;16.556;2022-10-16T06:19:11;7.87;;;7.00;;
11004;SDS011;5555;59.622;16.556;2022-10-16T06:21:37;8.40;;;7.60;;
11004;SDS011;5555;59.622;16.556;2022-10-16T06:24:03;8.33;;;7.53;;
11004;SDS011;5555;59.622;16.556;2022-10-16T06:26:30;7.90;;;7.10;;
11004;SDS011;5555;59.622;16.556;2022-10-16T06:28:56;7.97;;;7.23;;
11004;SDS011;5555;59.622;16.556;2022-10-16T06:31:24;7.77;;;6.33;;
11004;SDS011;5555;59.622;16.556;2022-10-16T06:33:53;7.00;;;6.40;;
11004;SDS011;5555;59.622;16.556;2022-10-16T06:36:19;6.50;;;5.90;;
11004;SDS011;5555;59.622;16.556;2022-10-16T06:38:46;7.10;;;6.40;;
11004;SDS011;5555;59.622;16.556;2022-10-16T06:41:12;6.07;;;5.50;;
11004;SDS011;5555;59.622;16.556;2022-10-16T06:43:40;7.30;;;6.67;;
11004;SDS011;5555;59.622;16.556;2022-10-16T06:46:07;6.27;;;5.77;;
11004;SDS011;5555;59.622;16.556;2022-10-16T06:48:35;6.67;;;6.10;;
11004;SDS011;5555;59.622;16.556;2022-10-16T06:51:02;6.53;;;5.93;;
11004;SDS011;5555;59.622;16.556;2022-10-16T06:53:31;6.63;;;5.80;;
11004;SDS011;5555;59.622;16.556;2022-10-16T06:56:06;7.37;;;6.03;;
11004;SDS011;5555;59.622;16.556;2022-10-16T06:58:36;6.80;;;6.13;;
11004;SDS011;5555;59.622;16.556;2022-10-16T07:01:02;7.30;;;6.47;;
11004;SDS011;5555;59.622;16.556;2022-10-16T07:03:28;6.53;;;5.73;;
11004;SDS011;5555;59.622;16.556;2022-10-16T07:05:54;6.73;;;5.80;;
11004;SDS011;5555;59.622;16.556;2022-10-16T07:08:20;6.43;;;5.23;;
11004;SDS011;5555;59.622;16.556;2022-10-16T07:10:46;6.63;;;4.87;;
11004;SDS011;5555;59.622;16.556;2022-10-16T07:13:11;5.90;;;5.37;;
11004;SDS011;5555;59.622;16.556;2022-10-16T07:15:40;6.40;;;4.77;;
11004;SDS011;5555;59.622;16.556;2022-10-16T07:18:06;6.10;;;4.60;;
11004;SDS011;5555;59.622;16.556;2022-10-16T07:20:32;6.00;;;4.27;;
11004;SDS011;5555;59.622;16.556;2022-10-16T07:22:58;5.63;;;4.10;;
11004;SDS011;5555;59.622;16.556;2022-10-16T07:25:23;10.60;;;6.03;;
11004;SDS011;5555;59.622;16.556;2022-10-16T07:27:49;18.73;;;8.40;;
11004;SDS011;5555;59.622;16.556;2022-10-16T07:30:14;16.63;;;8.40;;
11004;SDS011;5555;59.622;16.556;2022-10-16T07:32:40;17.23;;;8.33;;
11004;SDS011;5555;59.622;16.556;2022-10-16T07:35:06;14.53;;;6.80;;
11004;SDS011;5555;59.622;16.556;2022-10-16T07:37:32;12.23;;;6.37;;
11004;SDS011;5555;59.622;16.556;2022-10-16T07:39:57;12.77;;;6.03;;
11004;SDS011;5555;59.622;16.556;2022-10-16T07:42:23;11.80;;;5.37;;
11004;SDS011;5555;59.622;16.556;2022-10-16T07:44:48;10.00;;;4.50;;
11004;SDS011;5555;59.622;16.556;2022-10-16T07:47:14;10.43;;;5.33;;
11004;SDS011;5555;59.622;16.556;2022-10-16T07:49:40;11.50;;;7.17;;
11004;SDS011;5555;59.622;16.556;2022-10-16T07:52:05;11.60;;;6.13;;
11004;SDS011;5555;59.622;16.556;2022-10-16T07:54:31;9.07;;;5.50;;
11004;SDS011;5555;59.622;16.556;2022-10-16T07:56:56;7.90;;;4.20;;
11004;SDS011;5555;59.622;16.556;2022-10-16T07:59:22;16.70;;;7.13;;
11004;SDS011;5555;59.622;16.556;2022-10-16T08:01:48;13.20;;;6.00;;
11004;SDS011;5555;59.622;16.556;2022-10-16T08:04:14;11.17;;;4.50;;
11004;SDS011;5555;59.622;16.556;2022-10-16T08:06:40;12.30;;;5.87;;
11004;SDS011;5555;59.622;16.556;2022-10-16T08:09:06;9.67;;;5.20;;
11004;SDS011;5555;59.622;16.556;2022-10-16T08:11:33;9.60;;;4.50;;
11004;SDS011;5555;59.622;16.556;2022-10-16T08:13:59;9.60;;;4.77;;
11004;SDS011;5555;59.622;16.556;2022-10-16T08:16:25;6.13;;;3.60;;
11004;SDS011;5555;59.622;16.556;2022-10-16T08:18:50;6.13;;;3.10;;
11004;SDS011;5555;59.622;16.556;2022-10-16T08:21:17;5.87;;;3.50;;
11004;SDS011;5555;59.622;16.556;2022-10-16T08:23:45;6.00;;;3.10;;
11004;SDS011;5555;59.622;16.556;2022-10-16T08:26:11;5.73;;;3.37;;
11004;SDS011;5555;59.622;16.556;2022-10-16T08:28:37;5.97;;;3.40;;
11004;SDS011;5555;59.622;16.556;2022-10-16T08:31:08;6.17;;;3.33;;
11004;SDS011;5555;59.622;16.556;2022-10-16T08:33:38;7.67;;;3.67;;
11004;SDS011;5555;59.622;16.556;2022-10-16T08:36:06;6.10;;;2.93;;
11004;SDS011;5555;59.622;16.556;2022-10-16T08:38:32;6.53;;;3.20;;
11004;SDS011;5555;59.622;16.556;2022-10-16T08:49:08;9.63;;;3.00;;
11004;SDS011;5555;59.622;16.556;2022-10-16T08:51:40;8.07;;;2.97;;
11004;SDS011;5555;59.622;16.556;2022-10-16T08:56:56;7.43;;;3.30;;
11004;SDS011;5555;59.622;16.556;2022-10-16T08:59:26;7.27;;;3.03;;
11004;SDS011;5555;59.622;16.556;2022-10-16T09:01:52;10.30;;;3.40;;
11004;SDS011;5555;59.622;16.556;2022-10-16T09:07:24;9.67;;;3.27;;
11004;SDS011;5555;59.622;16.556;2022-10-16T09:12:44;8.03;;;3.00;;
11004;SDS011;5555;59.622;16.556;2022-10-16T09:15:32;8.03;;;3.10;;
11004;SDS011;5555;59.622;16.556;2022-10-16T09:20:32;7.60;;;2.90;;
11004;SDS011;5555;59.622;16.556;2022-10-16T09:23:16;9.10;;;3.20;;
11004;SDS011;5555;59.622;16.556;2022-10-16T09:25:53;10.37;;;3.43;;
11004;SDS011;5555;59.622;16.556;2022-10-16T09:28:20;8.30;;;3.60;;
11004;SDS011;5555;59.622;16.556;2022-10-16T09:30:46;7.27;;;3.10;;
11004;SDS011;5555;59.622;16.556;2022-10-16T09:33:15;5.97;;;2.80;;
11004;SDS011;5555;59.622;16.556;2022-10-16T09:35:45;7.40;;;3.10;;
11004;SDS011;5555;59.622;16.556;2022-10-16T09:38:28;11.90;;;3.40;;
11004;SDS011;5555;59.622;16.556;2022-10-16T09:40:56;6.13;;;2.83;;
11004;SDS011;5555;59.622;16.556;2022-10-16T09:43:27;6.80;;;2.80;;
11004;SDS011;5555;59.622;16.556;2022-10-16T09:46:04;4.73;;;2.63;;
11004;SDS011;5555;59.622;16.556;2022-10-16T09:48:36;6.40;;;2.87;;
11004;SDS011;5555;59.622;16.556;2022-10-16T09:51:05;5.90;;;2.50;;
11004;SDS011;5555;59.622;16.556;2022-10-16T09:53:42;6.83;;;2.60;;
11004;SDS011;5555;59.622;16.556;2022-10-16T09:56:10;6.20;;;2.60;;
11004;SDS011;5555;59.622;16.556;2022-10-16T09:58:41;6.40;;;2.60;;
11004;SDS011;5555;59.622;16.556;2022-10-16T10:01:13;8.30;;;2.90;;
11004;SDS011;5555;59.622;16.556;2022-10-16T10:03:41;7.67;;;2.57;;
11004;SDS011;5555;59.622;16.556;2022-10-16T10:06:22;8.43;;;3.00;;
11004;SDS011;5555;59.622;16.556;2022-10-16T10:08:58;7.33;;;2.43;;
11004;SDS011;5555;59.622;16.556;2022-10-16T10:11:38;7.60;;;2.97;;
11004;SDS011;5555;59.622;16.556;2022-10-16T10:14:05;10.27;;;2.90;;
11004;SDS011;5555;59.622;16.556;2022-10-16T10:16:33;7.20;;;2.23;;
11004;SDS011;5555;59.622;16.556;2022-10-16T10:19:00;7.77;;;2.27;;
11004;SDS011;5555;59.622;16.556;2022-10-16T10:21:25;9.70;;;2.53;;
11004;SDS011;5555;59.622;16.556;2022-10-16T10:23:57;7.90;;;2.50;;
11004;SDS011;5555;59.622;16.556;2022-10-16T10:26:24;8.47;;;2.60;;
11004;SDS011;5555;59.622;16.556;2022-10-16T10:31:53;7.10;;;2.63;;
11004;SDS011;5555;59.622;16.556;2022-10-16T10:37:27;9.07;;;2.67;;
11004;SDS011;5555;59.622;16.556;2022-10-16T10:40:33;8.07;;;2.40;;
11004;SDS011;5555;59.622;16.556;2022-10-16T10:46:00;6.97;;;2.50;;
11004;SDS011;5555;59.622;16.556;2022-10-16T10:51:28;6.70;;;2.33;;
11004;SDS011;5555;59.622;16.556;2022-10-16T10:54:20;5.80;;;2.10;;
11004;SDS011;5555;59.622;16.556;2022-10-16T10:56:51;7.83;;;2.07;;
11004;SDS011;5555;59.622;16.556;2022-10-16T11:02:25;7.50;;;2.27;;
11004;SDS011;5555;59.622;16.556;2022-10-16T11:05:31;8.73;;;2.43;;
11004;SDS011;5555;59.622;16.556;2022-10-16T11:08:18;9.17;;;2.60;;
11004;SDS011;5555;59.622;16.556;2022-10-16T11:15:47;10.60;;;3.07;;
11004;SDS011;5555;59.622;16.556;2022-10-16T11:18:18;10.30;;;2.60;;
11004;SDS011;5555;59.622;16.556;2022-10-16T11:21:05;10.60;;;2.70;;
11004;SDS011;5555;59.622;16.556;2022-10-16T11:23:43;8.87;;;2.33;;
11004;SDS011;5555;59.622;16.556;2022-10-16T11:26:14;11.37;;;2.83;;
11004;SDS011;5555;59.622;16.556;2022-10-16T11:28:53;7.80;;;2.43;;
11004;SDS011;5555;59.622;16.556;2022-10-16T11:37:32;7.07;;;2.43;;
11004;SDS011;5555;59.622;16.556;2022-10-16T11:43:02;5.40;;;2.57;;
11004;SDS011;5555;59.622;16.556;2022-10-16T11:45:40;6.30;;;2.47;;
11004;SDS011;5555;59.622;16.556;2022-10-16T11:50:56;5.33;;;2.40;;
11004;SDS011;5555;59.622;16.556;2022-10-16T11:56:15;6.73;;;2.80;;
11004;SDS011;5555;59.622;16.556;2022-10-16T11:58:57;5.27;;;2.57;;
11004;SDS011;5555;59.622;16.556;2022-10-16T12:04:14;7.27;;;3.17;;
11004;SDS011;5555;59.622;16.556;2022-10-16T12:06:57;7.03;;;2.57;;
11004;SDS011;5555;59.622;16.556;2022-10-16T12:09:29;4.60;;;2.50;;
11004;SDS011;5555;59.622;16.556;2022-10-16T12:11:56;6.73;;;2.90;;
11004;SDS011;5555;59.622;16.556;2022-10-16T12:14:32;8.37;;;3.20;;
11004;SDS011;5555;59.622;16.556;2022-10-16T12:17:21;7.30;;;2.83;;
11004;SDS011;5555;59.622;16.556;2022-10-16T12:19:59;6.37;;;2.70;;
11004;SDS011;5555;59.622;16.556;2022-10-16T12:25:39;6.57;;;2.90;;
11004;SDS011;5555;59.622;16.556;2022-10-16T12:30:40;7.67;;;2.87;;
11004;SDS011;5555;59.622;16.556;2022-10-16T12:33:24;6.20;;;2.60;;
11004;SDS011;5555;59.622;16.556;2022-10-16T12:35:59;3.87;;;2.37;;
11004;SDS011;5555;59.622;16.556;2022-10-16T12:41:10;7.57;;;3.23;;
11004;SDS011;5555;59.622;16.556;2022-10-16T12:43:40;5.73;;;2.80;;
11004;SDS011;5555;59.622;16.556;2022-10-16T12:48:33;7.77;;;3.13;;
11004;SDS011;5555;59.622;16.556;2022-10-16T12:51:12;5.00;;;2.80;;
11004;SDS011;5555;59.622;16.556;2022-10-16T12:53:59;4.70;;;2.50;;
11004;SDS011;5555;59.622;16.556;2022-10-16T12:59:28;3.47;;;2.10;;
11004;SDS011;5555;59.622;16.556;2022-10-16T13:10:22;3.43;;;2.50;;
11004;SDS011;5555;59.622;16.556;2022-10-16T13:15:47;7.20;;;2.77;;
11004;SDS011;5555;59.622;16.556;2022-10-16T13:29:06;3.87;;;2.23;;
11004;SDS011;5555;59.622;16.556;2022-10-16T13:31:31;3.83;;;2.03;;
11004;SDS011;5555;59.622;16.556;2022-10-16T13:33:59;2.63;;;2.30;;
11004;SDS011;5555;59.622;16.556;2022-10-16T13:36:26;3.57;;;2.13;;
11004;SDS011;5555;59.622;16.556;2022-10-16T13:41:37;4.10;;;2.47;;
11004;SDS011;5555;59.622;16.556;2022-10-16T13:44:03;5.80;;;2.63;;
11004;SDS011;5555;59.622;16.556;2022-10-16T13:46:30;3.33;;;2.17;;
11004;SDS011;5555;59.622;16.556;2022-10-16T13:49:00;3.20;;;2.10;;
11004;SDS011;5555;59.622;16.556;2022-10-16T13:51:30;3.23;;;2.63;;
11004;SDS011;5555;59.622;16.556;2022-10-16T13:53:58;4.60;;;2.50;;
11004;SDS011;5555;59.622;16.556;2022-10-16T13:56:27;3.70;;;2.13;;
11004;SDS011;5555;59.622;16.556;2022-10-16T13:59:01;4.87;;;2.50;;
11004;SDS011;5555;59.622;16.556;2022-10-16T14:01:50;4.97;;;2.83;;
11004;SDS011;5555;59.622;16.556;2022-10-16T14:04:16;4.90;;;2.70;;
11004;SDS011;5555;59.622;16.556;2022-10-16T14:06:43;5.60;;;2.47;;
11004;SDS011;5555;59.622;16.556;2022-10-16T14:09:25;3.40;;;2.70;;
11004;SDS011;5555;59.622;16.556;2022-10-16T14:11:56;5.40;;;3.00;;
11004;SDS011;5555;59.622;16.556;2022-10-16T14:14:42;4.93;;;2.97;;
11004;SDS011;5555;59.622;16.556;2022-10-16T14:17:14;7.93;;;3.17;;
11004;SDS011;5555;59.622;16.556;2022-10-16T14:19:51;4.60;;;3.17;;
11004;SDS011;5555;59.622;16.556;2022-10-16T14:22:33;3.20;;;2.63;;
11004;SDS011;5555;59.622;16.556;2022-10-16T14:25:02;5.23;;;3.17;;
11004;SDS011;5555;59.622;16.556;2022-10-16T14:27:45;7.83;;;3.93;;
11004;SDS011;5555;59.622;16.556;2022-10-16T14:30:22;5.17;;;3.07;;
11004;SDS011;5555;59.622;16.556;2022-10-16T14:35:33;5.23;;;2.90;;
11004;SDS011;5555;59.622;16.556;2022-10-16T14:38:02;3.30;;;1.67;;
11004;SDS011;5555;59.622;16.556;2022-10-16T14:40:31;5.10;;;1.87;;
11004;SDS011;5555;59.622;16.556;2022-10-16T14:42:58;2.83;;;1.73;;
11004;SDS011;5555;59.622;16.556;2022-10-16T14:45:30;3.13;;;1.60;;
11004;SDS011;5555;59.622;16.556;2022-10-16T14:48:13;3.47;;;1.47;;
11004;SDS011;5555;59.622;16.556;2022-10-16T14:50:42;4.17;;;1.80;;
11004;SDS011;5555;59.622;16.556;2022-10-16T14:53:10;2.83;;;1.67;;
11004;SDS011;5555;59.622;16.556;2022-10-16T14:55:37;4.90;;;1.97;;
11004;SDS011;5555;59.622;16.556;2022-10-16T14:58:04;4.33;;;2.47;;
11004;SDS011;5555;59.622;16.556;2022-10-16T15:00:30;4.93;;;1.70;;
11004;SDS011;5555;59.622;16.556;2022-10-16T15:02:55;5.57;;;1.80;;
11004;SDS011;5555;59.622;16.556;2022-10-16T15:05:22;6.03;;;1.93;;
11004;SDS011;5555;59.622;16.556;2022-10-16T15:07:52;3.80;;;1.83;;
11004;SDS011;5555;59.622;16.556;2022-10-16T15:10:19;5.17;;;2.13;;
11004;SDS011;5555;59.622;16.556;2022-10-16T15:12:47;4.63;;;1.90;;
11004;SDS011;5555;59.622;16.556;2022-10-16T15:17:47;5.57;;;1.90;;
11004;SDS011;5555;59.622;16.556;2022-10-16T15:20:22;5.33;;;2.00;;
11004;SDS011;5555;59.622;16.556;2022-10-16T15:22:49;3.93;;;1.70;;
11004;SDS011;5555;59.622;16.556;2022-10-16T15:28:16;2.97;;;1.77;;
11004;SDS011;5555;59.622;16.556;2022-10-16T15:30:43;5.20;;;2.30;;
11004;SDS011;5555;59.622;16.556;2022-10-16T15:33:17;4.73;;;1.80;;
11004;SDS011;5555;59.622;16.556;2022-10-16T15:35:47;5.27;;;1.97;;
11004;SDS011;5555;59.622;16.556;2022-10-16T15:38:15;3.87;;;1.33;;
11004;SDS011;5555;59.622;16.556;2022-10-16T15:40:41;5.87;;;2.00;;
11004;SDS011;5555;59.622;16.556;2022-10-16T15:43:07;4.80;;;1.53;;
11004;SDS011;5555;59.622;16.556;2022-10-16T15:45:33;2.87;;;1.57;;
11004;SDS011;5555;59.622;16.556;2022-10-16T15:47:59;3.20;;;1.57;;
11004;SDS011;5555;59.622;16.556;2022-10-16T15:50:25;5.00;;;1.93;;
11004;SDS011;5555;59.622;16.556;2022-10-16T15:52:51;4.37;;;1.77;;
11004;SDS011;5555;59.622;16.556;2022-10-16T15:55:17;6.13;;;1.47;;
11004;SDS011;5555;59.622;16.556;2022-10-16T15:57:43;3.17;;;1.70;;
11004;SDS011;5555;59.622;16.556;2022-10-16T16:00:11;2.37;;;1.17;;
11004;SDS011;5555;59.622;16.556;2022-10-16T16:02:39;3.53;;;1.40;;
11004;SDS011;5555;59.622;16.556;2022-10-16T16:05:06;2.20;;;0.80;;
11004;SDS011;5555;59.622;16.556;2022-10-16T16:07:36;2.87;;;1.03;;
11004;SDS011;5555;59.622;16.556;2022-10-16T16:10:04;1.70;;;0.83;;
11004;SDS011;5555;59.622;16.556;2022-10-16T16:12:32;2.10;;;0.90;;
11004;SDS011;5555;59.622;16.556;2022-10-16T16:14:58;2.50;;;0.80;;
11004;SDS011;5555;59.622;16.556;2022-10-16T16:17:24;3.67;;;1.10;;
11004;SDS011;5555;59.622;16.556;2022-10-16T16:19:50;4.17;;;1.03;;
11004;SDS011;5555;59.622;16.556;2022-10-16T16:22:16;2.33;;;0.70;;
11004;SDS011;5555;59.622;16.556;2022-10-16T16:24:42;2.03;;;0.90;;
11004;SDS011;5555;59.622;16.556;2022-10-16T16:27:07;1.03;;;0.60;;
11004;SDS011;5555;59.622;16.556;2022-10-16T16:29:33;3.80;;;0.87;;
11004;SDS011;5555;59.622;16.556;2022-10-16T16:31:59;2.43;;;0.70;;
11004;SDS011;5555;59.622;16.556;2022-10-16T16:34:26;2.93;;;0.93;;
11004;SDS011;5555;59.622;16.556;2022-10-16T16:36:53;1.57;;;0.60;;
11004;SDS011;5555;59.622;16.556;2022-10-16T16:39:20;3.30;;;1.03;;
11004;SDS011;5555;59.622;16.556;2022-10-16T16:41:45;1.23;;;0.70;;
11004;SDS011;5555;59.622;16.556;2022-10-16T16:44:11;1.83;;;0.73;;
11004;SDS011;5555;59.622;16.556;2022-10-16T16:46:38;2.73;;;0.70;;
11004;SDS011;5555;59.622;16.556;2022-10-16T16:49:05;1.67;;;0.70;;
11004;SDS011;5555;59.622;16.556;2022-10-16T16:51:31;1.30;;;1.03;;
11004;SDS011;5555;59.622;16.556;2022-10-16T16:53:58;2.77;;;1.20;;
11004;SDS011;5555;59.622;16.556;2022-10-16T16:56:24;1.40;;;0.80;;
11004;SDS011;5555;59.622;16.556;2022-10-16T16:58:52;4.70;;;1.23;;